createdAt,value
2023-02-17T00:01:10.850Z,12.82
2023-02-17T00:03:37.264Z,14.15
2023-02-17T00:06:10.841Z,15.25
2023-02-17T00:08:37.528Z,15.07
2023-02-17T00:11:04.198Z,15.18
2023-02-17T00:13:30.581Z,15.73
2023-02-17T00:15:57.033Z,14.25
2023-02-17T00:18:29.706Z,15.25
2023-02-17T00:20:56.091Z,15.45
2023-02-17T00:23:22.587Z,16.75
2023-02-17T00:25:48.988Z,17.30
2023-02-17T00:28:15.456Z,15.45
2023-02-17T00:30:41.877Z,16.08
2023-02-17T00:33:08.281Z,17.10
2023-02-17T00:35:38.714Z,16.95
2023-02-17T00:38:05.100Z,17.00
2023-02-17T00:40:31.479Z,17.60
2023-02-17T00:42:57.930Z,17.15
2023-02-17T00:45:27.324Z,16.92
2023-02-17T00:47:53.756Z,17.73
2023-02-17T00:50:20.222Z,17.33
2023-02-17T00:52:46.591Z,17.90
2023-02-17T00:55:12.993Z,17.80
2023-02-17T00:57:39.396Z,18.08
2023-02-17T01:00:06.403Z,17.48
2023-02-17T01:02:33.108Z,18.40
2023-02-17T01:04:59.538Z,16.42
2023-02-17T01:07:25.961Z,15.90
2023-02-17T01:09:52.347Z,16.98
2023-02-17T01:12:18.745Z,15.18
2023-02-17T01:14:45.147Z,16.15
2023-02-17T01:17:11.639Z,15.77
2023-02-17T01:19:38.073Z,15.98
2023-02-17T01:22:04.603Z,16.02
2023-02-17T01:24:31.144Z,17.52
2023-02-17T01:27:00.378Z,17.17
2023-02-17T01:29:26.794Z,15.98
2023-02-17T01:31:53.287Z,17.27
2023-02-17T01:34:19.725Z,16.05
2023-02-17T01:36:46.133Z,15.75
2023-02-17T01:39:15.864Z,16.90
2023-02-17T01:41:42.389Z,16.00
2023-02-17T01:44:23.106Z,17.55
2023-02-17T01:46:51.022Z,16.63
2023-02-17T01:49:19.878Z,16.05
2023-02-17T01:51:48.669Z,16.17
2023-02-17T01:54:20.130Z,15.88
2023-02-17T01:56:48.398Z,15.93
2023-02-17T01:59:17.428Z,16.30
2023-02-17T02:01:43.955Z,15.63
2023-02-17T02:04:13.541Z,16.95
2023-02-17T02:06:40.874Z,15.43
2023-02-17T02:09:09.027Z,16.58
2023-02-17T02:11:35.796Z,15.10
2023-02-17T02:14:04.409Z,16.27
2023-02-17T02:16:36.595Z,15.52
2023-02-17T02:19:21.258Z,15.55
2023-02-17T02:22:06.407Z,15.48
2023-02-17T02:24:51.486Z,16.35
2023-02-17T02:27:27.272Z,17.60
2023-02-17T02:29:53.863Z,16.13
2023-02-17T02:32:20.264Z,17.55
2023-02-17T02:34:48.764Z,17.08
2023-02-17T02:37:18.012Z,17.17
2023-02-17T02:39:47.088Z,16.50
2023-02-17T02:42:15.907Z,17.10
2023-02-17T02:44:42.393Z,17.48
2023-02-17T02:47:27.517Z,19.33
2023-02-17T02:49:53.984Z,19.10
2023-02-17T02:52:28.731Z,18.02
2023-02-17T02:55:05.889Z,19.75
2023-02-17T02:57:50.358Z,17.80
2023-02-17T03:00:22.756Z,17.73
2023-02-17T03:02:52.457Z,20.38
2023-02-17T03:05:39.190Z,18.60
2023-02-17T03:08:10.178Z,18.17
2023-02-17T03:10:36.785Z,18.65
2023-02-17T03:13:03.494Z,20.42
2023-02-17T03:15:33.769Z,18.85
2023-02-17T03:18:01.163Z,19.60
2023-02-17T03:20:30.026Z,17.88
2023-02-17T03:22:56.625Z,18.65
2023-02-17T03:25:23.009Z,18.25
2023-02-17T03:27:49.420Z,17.20
2023-02-17T03:30:16.137Z,17.80
2023-02-17T03:32:42.551Z,17.13
2023-02-17T03:35:09.493Z,19.35
2023-02-17T03:37:35.994Z,18.05
2023-02-17T03:40:02.428Z,16.15
2023-02-17T03:42:28.835Z,16.15
2023-02-17T03:44:55.229Z,16.33
2023-02-17T03:47:23.508Z,15.73
2023-02-17T03:49:50.721Z,15.65
2023-02-17T03:52:17.152Z,14.63
2023-02-17T03:54:43.612Z,14.98
2023-02-17T03:57:10.053Z,15.20
2023-02-17T03:59:36.621Z,14.23
2023-02-17T04:02:03.666Z,14.02
2023-02-17T04:04:30.042Z,13.55
2023-02-17T04:06:56.486Z,12.02
2023-02-17T04:09:22.862Z,13.13
2023-02-17T04:11:49.327Z,12.18
2023-02-17T04:14:15.697Z,11.05
2023-02-17T04:16:42.123Z,11.07
2023-02-17T04:19:08.544Z,10.93
2023-02-17T04:21:35.215Z,9.90
2023-02-17T04:24:02.282Z,10.23
2023-02-17T04:26:30.194Z,10.45
2023-02-17T04:28:59.719Z,11.05
2023-02-17T04:31:28.054Z,10.63
2023-02-17T04:33:54.993Z,12.98
2023-02-17T04:36:21.441Z,11.18
2023-02-17T04:38:48.062Z,11.80
2023-02-17T04:41:14.476Z,10.80
2023-02-17T04:43:40.884Z,10.43
2023-02-17T04:46:10.072Z,11.07
2023-02-17T04:48:36.633Z,9.63
2023-02-17T04:51:03.182Z,10.00
2023-02-17T04:53:29.556Z,9.68
2023-02-17T04:55:58.895Z,10.07
2023-02-17T04:58:25.332Z,9.50
2023-02-17T05:00:51.794Z,8.32
2023-02-17T05:03:18.725Z,8.88
2023-02-17T05:05:46.970Z,7.68
2023-02-17T05:08:13.524Z,7.18
2023-02-17T05:10:39.945Z,6.70
2023-02-17T05:13:06.428Z,6.93
2023-02-17T05:15:34.896Z,5.45
2023-02-17T05:18:01.604Z,5.78
2023-02-17T05:20:28.049Z,5.05
2023-02-17T05:22:54.659Z,4.68
2023-02-17T05:25:21.216Z,4.85
2023-02-17T05:27:47.617Z,4.65
2023-02-17T05:30:14.083Z,4.43
2023-02-17T05:32:40.594Z,3.83
2023-02-17T05:35:07.218Z,3.53
2023-02-17T05:37:33.679Z,2.97
2023-02-17T05:40:00.120Z,3.35
2023-02-17T05:42:28.863Z,2.85
2023-02-17T05:44:58.142Z,2.92
2023-02-17T05:47:26.673Z,2.97
2023-02-17T05:49:53.967Z,2.53
2023-02-17T05:52:20.466Z,3.15
2023-02-17T05:54:46.943Z,2.22
2023-02-17T05:57:13.451Z,2.58
2023-02-17T05:59:39.875Z,2.47
2023-02-17T06:02:09.312Z,2.35
2023-02-17T06:04:36.113Z,2.17
2023-02-17T06:07:02.574Z,2.40
2023-02-17T06:09:29.051Z,2.63
2023-02-17T06:11:55.438Z,2.60
2023-02-17T06:14:21.905Z,3.13
2023-02-17T06:16:48.299Z,2.33
2023-02-17T06:19:14.732Z,2.83
2023-02-17T06:21:41.117Z,2.58
2023-02-17T06:24:07.507Z,2.45
2023-02-17T06:26:33.890Z,3.20
2023-02-17T06:29:00.277Z,2.95
2023-02-17T06:31:26.770Z,2.92
2023-02-17T06:33:53.248Z,2.88
2023-02-17T06:36:19.774Z,3.15
2023-02-17T06:38:46.424Z,3.00
2023-02-17T06:41:12.839Z,2.53
2023-02-17T06:43:41.032Z,2.70
2023-02-17T06:46:07.841Z,2.42
2023-02-17T06:48:34.779Z,3.03
2023-02-17T06:51:01.678Z,2.53
2023-02-17T06:53:28.148Z,2.72
2023-02-17T06:55:54.571Z,3.30
2023-02-17T06:58:20.987Z,2.55
2023-02-17T07:00:47.463Z,2.40
2023-02-17T07:03:13.871Z,2.90
2023-02-17T07:05:40.430Z,2.33
2023-02-17T07:08:07.214Z,2.25
2023-02-17T07:10:33.767Z,2.30
2023-02-17T07:13:00.221Z,2.33
2023-02-17T07:15:26.626Z,2.53
2023-02-17T07:17:53.041Z,1.98
2023-02-17T07:20:19.514Z,2.20
2023-02-17T07:22:46.007Z,2.40
2023-02-17T07:25:14.518Z,2.55
2023-02-17T07:27:40.898Z,2.28
2023-02-17T07:30:08.339Z,2.63
2023-02-17T07:32:35.559Z,2.67
2023-02-17T07:35:02.024Z,2.22
2023-02-17T07:37:28.433Z,2.30
2023-02-17T07:39:56.993Z,2.45
2023-02-17T07:42:25.434Z,2.10
2023-02-17T07:44:51.808Z,2.58
2023-02-17T07:47:18.226Z,2.45
2023-02-17T07:49:44.687Z,2.10
2023-02-17T07:52:11.219Z,2.10
2023-02-17T07:54:37.820Z,2.22
2023-02-17T07:57:04.219Z,2.03
2023-02-17T07:59:30.689Z,1.80
2023-02-17T08:01:57.168Z,1.75
2023-02-17T08:04:23.616Z,1.50
2023-02-17T08:06:50.108Z,1.40
2023-02-17T08:09:34.929Z,1.23
2023-02-17T08:12:19.708Z,1.40
2023-02-17T08:14:46.135Z,1.45
2023-02-17T08:17:12.618Z,1.30
2023-02-17T08:19:48.472Z,1.20
2023-02-17T08:22:16.699Z,1.10
2023-02-17T08:24:43.352Z,0.82
2023-02-17T08:27:09.807Z,0.80
2023-02-17T08:29:36.231Z,1.65
2023-02-17T08:32:02.771Z,0.90
2023-02-17T08:34:33.585Z,0.80
2023-02-17T08:37:03.644Z,1.35
2023-02-17T08:39:30.484Z,1.43
2023-02-17T08:41:57.167Z,0.80
2023-02-17T08:44:24.059Z,0.70
2023-02-17T08:46:51.099Z,0.60
2023-02-17T08:49:18.465Z,0.50
2023-02-17T08:51:45.402Z,0.55
2023-02-17T08:54:12.500Z,0.57
2023-02-17T08:56:39.774Z,0.70
2023-02-17T08:59:07.431Z,0.60
2023-02-17T09:01:34.559Z,0.60
2023-02-17T09:04:01.752Z,0.60
2023-02-17T09:06:35.653Z,0.65
2023-02-17T09:09:02.480Z,1.00
2023-02-17T09:11:29.012Z,0.68
2023-02-17T09:13:55.491Z,0.57
2023-02-17T09:16:24.384Z,1.17
2023-02-17T09:18:51.997Z,0.63
2023-02-17T09:21:18.890Z,0.50
2023-02-17T09:23:45.769Z,0.63
2023-02-17T09:26:13.135Z,0.80
2023-02-17T09:28:39.711Z,0.63
2023-02-17T09:31:13.158Z,0.60
2023-02-17T09:33:40.327Z,0.50
2023-02-17T09:36:07.871Z,0.60
2023-02-17T09:38:34.839Z,0.50
2023-02-17T09:41:08.175Z,0.60
2023-02-17T09:43:34.721Z,0.73
2023-02-17T09:46:05.804Z,0.52
2023-02-17T09:48:32.993Z,0.55
2023-02-17T09:51:25.149Z,0.75
2023-02-17T09:54:00.528Z,0.50
2023-02-17T09:56:34.832Z,0.50
2023-02-17T09:59:04.488Z,0.65
2023-02-17T10:01:32.259Z,0.40
2023-02-17T10:04:21.749Z,0.50
2023-02-17T10:07:14.497Z,0.60
2023-02-17T10:10:02.766Z,0.82
2023-02-17T10:12:37.329Z,0.68
2023-02-17T10:15:05.856Z,0.50
2023-02-17T10:17:34.575Z,0.50
2023-02-17T10:20:08.156Z,0.40
2023-02-17T10:22:35.263Z,0.68
2023-02-17T10:25:03.797Z,0.60
2023-02-17T10:27:37.939Z,0.63
2023-02-17T10:30:16.800Z,0.50
2023-02-17T10:32:49.254Z,0.50
2023-02-17T10:35:23.133Z,0.50
2023-02-17T10:37:50.653Z,0.47
2023-02-17T10:40:27.392Z,0.50
2023-02-17T10:42:58.170Z,0.50
2023-02-17T10:45:33.597Z,0.50
2023-02-17T10:48:09.145Z,0.30
2023-02-17T10:50:37.432Z,0.43
2023-02-17T10:53:12.008Z,0.38
2023-02-17T10:55:41.088Z,0.32
2023-02-17T10:58:20.812Z,0.52
2023-02-17T11:00:49.747Z,0.60
2023-02-17T11:03:24.379Z,0.50
2023-02-17T11:06:01.830Z,0.30
2023-02-17T11:08:30.271Z,0.50
2023-02-17T11:11:04.991Z,0.63
2023-02-17T11:13:36.283Z,0.50
2023-02-17T11:16:03.175Z,0.60
2023-02-17T11:18:32.737Z,0.60
2023-02-17T11:21:09.533Z,0.50
2023-02-17T11:23:36.789Z,0.63
2023-02-17T11:26:10.798Z,0.52
2023-02-17T11:28:37.346Z,0.40
2023-02-17T11:31:04.895Z,0.52
2023-02-17T11:33:38.835Z,0.40
2023-02-17T11:36:06.605Z,0.43
2023-02-17T11:38:41.421Z,0.70
2023-02-17T11:41:08.454Z,0.32
2023-02-17T11:43:35.767Z,1.00
2023-02-17T11:46:08.590Z,0.50
2023-02-17T11:48:41.179Z,0.47
2023-02-17T11:51:26.511Z,0.70
2023-02-17T11:54:08.100Z,0.63
2023-02-17T11:56:36.806Z,0.40
2023-02-17T11:59:03.155Z,0.52
2023-02-17T12:01:32.351Z,0.55
2023-02-17T12:03:58.801Z,0.35
2023-02-17T12:06:43.469Z,0.30
2023-02-17T12:09:36.132Z,0.30
2023-02-17T12:12:14.441Z,0.22
2023-02-17T12:15:10.236Z,0.30
2023-02-17T12:17:39.626Z,0.20
2023-02-17T12:20:07.167Z,0.20
2023-02-17T12:22:41.626Z,0.30
2023-02-17T12:25:28.948Z,0.20
2023-02-17T12:28:20.243Z,0.20
2023-02-17T12:31:15.767Z,0.20
2023-02-17T12:33:58.258Z,0.30
2023-02-17T12:36:27.776Z,0.20
2023-02-17T12:38:55.157Z,0.22
2023-02-17T12:41:27.427Z,0.30
2023-02-17T12:43:58.205Z,0.50
2023-02-17T12:46:32.220Z,0.40
2023-02-17T12:49:06.553Z,0.30
2023-02-17T12:51:35.288Z,0.35
2023-02-17T12:54:15.844Z,0.40
2023-02-17T12:56:42.200Z,0.38
2023-02-17T12:59:16.931Z,0.30
2023-02-17T13:01:52.724Z,0.40
2023-02-17T13:04:19.803Z,0.57
2023-02-17T13:06:52.668Z,0.60
2023-02-17T13:09:29.578Z,0.82
2023-02-17T13:12:07.232Z,0.88
2023-02-17T13:14:41.262Z,1.00
2023-02-17T13:17:21.535Z,1.35
2023-02-17T13:19:48.050Z,0.68
2023-02-17T13:22:22.332Z,0.75
2023-02-17T13:24:54.143Z,1.20
2023-02-17T13:27:21.748Z,1.40
2023-02-17T13:30:11.207Z,1.67
2023-02-17T13:32:38.408Z,2.00
2023-02-17T13:35:18.215Z,1.67
2023-02-17T13:37:47.514Z,2.38
2023-02-17T13:40:17.821Z,2.55
2023-02-17T13:42:48.259Z,4.70
2023-02-17T13:45:24.308Z,3.53
2023-02-17T13:47:51.698Z,3.25
2023-02-17T13:50:47.521Z,4.05
2023-02-17T13:53:22.396Z,3.97
2023-02-17T13:55:48.844Z,4.13
2023-02-17T13:58:21.101Z,5.82
2023-02-17T14:00:48.459Z,4.65
2023-02-17T14:03:17.607Z,6.50
2023-02-17T14:05:45.064Z,3.50
2023-02-17T14:08:20.485Z,5.95
2023-02-17T14:10:47.050Z,4.60
2023-02-17T14:13:13.910Z,4.40
2023-02-17T14:16:12.887Z,4.20
2023-02-17T14:18:42.070Z,4.97
2023-02-17T14:21:23.161Z,4.22
2023-02-17T14:23:52.261Z,3.90
2023-02-17T14:26:37.006Z,4.20
2023-02-17T14:29:05.671Z,3.78
2023-02-17T14:31:43.212Z,4.18
2023-02-17T14:34:13.873Z,4.57
2023-02-17T14:36:40.623Z,4.47
2023-02-17T14:39:08.228Z,3.30
2023-02-17T14:41:34.836Z,3.00
2023-02-17T14:44:01.290Z,3.10
2023-02-17T14:46:28.101Z,3.60
2023-02-17T14:48:54.681Z,4.75
2023-02-17T14:51:22.228Z,4.32
2023-02-17T14:53:49.622Z,4.28
2023-02-17T14:56:19.823Z,4.50
2023-02-17T14:58:46.530Z,4.57
2023-02-17T15:01:13.671Z,4.18
2023-02-17T15:03:40.170Z,4.05
2023-02-17T15:06:17.147Z,3.40
2023-02-17T15:08:45.279Z,5.22
2023-02-17T15:11:30.508Z,5.22
2023-02-17T15:13:56.964Z,5.65
2023-02-17T15:16:23.467Z,4.25
2023-02-17T15:18:50.952Z,4.03
2023-02-17T15:21:28.124Z,3.80
2023-02-17T15:23:57.614Z,2.85
2023-02-17T15:26:24.409Z,4.13
2023-02-17T15:28:51.138Z,3.35
2023-02-17T15:31:20.830Z,3.22
2023-02-17T15:33:52.500Z,3.88
2023-02-17T15:36:18.928Z,3.20
2023-02-17T15:38:45.428Z,3.55
2023-02-17T15:41:17.486Z,4.03
2023-02-17T15:43:45.467Z,3.90
2023-02-17T15:46:15.407Z,3.35
2023-02-17T15:48:42.688Z,3.50
2023-02-17T15:51:13.488Z,3.63
2023-02-17T15:53:39.915Z,4.20
2023-02-17T15:56:26.863Z,2.50
2023-02-17T15:58:53.666Z,2.28
2023-02-17T16:01:30.965Z,2.53
2023-02-17T16:03:58.040Z,2.33
2023-02-17T16:06:24.973Z,2.22
2023-02-17T16:08:51.402Z,2.00
2023-02-17T16:11:19.308Z,2.13
2023-02-17T16:13:46.216Z,1.80
2023-02-17T16:16:17.722Z,1.27
2023-02-17T16:18:44.832Z,1.50
2023-02-17T16:21:12.617Z,0.88
2023-02-17T16:23:39.121Z,1.58
2023-02-17T16:26:06.764Z,1.10
2023-02-17T16:28:33.687Z,0.88
2023-02-17T16:31:00.105Z,1.38
2023-02-17T16:33:26.607Z,1.10
2023-02-17T16:35:53.261Z,1.13
2023-02-17T16:38:25.907Z,0.90
2023-02-17T16:40:53.139Z,1.00
2023-02-17T16:43:20.835Z,1.27
2023-02-17T16:45:52.316Z,1.00
2023-02-17T16:48:20.720Z,0.85
2023-02-17T16:50:47.105Z,1.10
2023-02-17T16:53:14.062Z,1.08
2023-02-17T16:55:40.994Z,1.05
2023-02-17T16:58:15.352Z,0.80
2023-02-17T17:00:42.149Z,0.93
2023-02-17T17:03:08.628Z,1.15
2023-02-17T17:05:35.715Z,1.30
2023-02-17T17:08:02.097Z,1.25
2023-02-17T17:10:29.990Z,1.23
2023-02-17T17:12:56.546Z,1.30
2023-02-17T17:15:22.966Z,1.25
2023-02-17T17:17:55.817Z,2.70
2023-02-17T17:20:24.099Z,2.63
2023-02-17T17:22:51.471Z,2.92
2023-02-17T17:25:17.960Z,2.38
2023-02-17T17:27:45.941Z,2.22
2023-02-17T17:30:16.351Z,3.10
2023-02-17T17:32:44.453Z,3.42
2023-02-17T17:35:11.045Z,3.00
2023-02-17T17:37:39.430Z,3.53
2023-02-17T17:40:06.350Z,4.05
2023-02-17T17:42:32.958Z,4.13
2023-02-17T17:44:59.334Z,4.05
2023-02-17T17:47:30.129Z,3.33
2023-02-17T17:49:59.763Z,3.75
2023-02-17T17:52:26.310Z,3.75
2023-02-17T17:54:52.702Z,4.28
2023-02-17T17:57:19.058Z,4.22
2023-02-17T17:59:45.581Z,4.35
2023-02-17T18:02:12.004Z,4.40
2023-02-17T18:04:38.417Z,3.25
2023-02-17T18:07:05.045Z,5.53
2023-02-17T18:09:32.794Z,3.67
2023-02-17T18:12:01.220Z,3.55
2023-02-17T18:14:27.708Z,4.47
2023-02-17T18:16:54.107Z,3.35
2023-02-17T18:19:20.670Z,4.15
2023-02-17T18:21:47.741Z,2.40
2023-02-17T18:24:14.316Z,3.45
2023-02-17T18:26:40.867Z,3.78
2023-02-17T18:29:07.422Z,3.08
2023-02-17T18:31:33.949Z,3.88
2023-02-17T18:34:00.399Z,2.90
2023-02-17T18:36:27.008Z,2.83
2023-02-17T18:38:53.677Z,3.08
2023-02-17T18:41:20.990Z,2.80
2023-02-17T18:43:47.579Z,2.90
2023-02-17T18:46:14.744Z,2.65
2023-02-17T18:48:44.353Z,3.33
2023-02-17T18:51:11.979Z,3.05
2023-02-17T18:53:38.724Z,4.60
2023-02-17T18:56:10.059Z,2.53
2023-02-17T18:58:36.440Z,2.83
2023-02-17T19:01:02.861Z,2.95
2023-02-17T19:03:29.575Z,2.50
2023-02-17T19:05:56.041Z,1.55
2023-02-17T19:08:22.549Z,1.63
2023-02-17T19:10:50.426Z,2.30
2023-02-17T19:13:16.843Z,2.50
2023-02-17T19:15:43.242Z,2.05
2023-02-17T19:18:09.754Z,2.17
2023-02-17T19:20:36.128Z,1.20
2023-02-17T19:23:04.931Z,1.70
2023-02-17T19:25:31.382Z,1.33
2023-02-17T19:27:57.820Z,2.10
2023-02-17T19:30:24.407Z,1.42
2023-02-17T19:32:50.855Z,1.17
2023-02-17T19:35:17.380Z,1.55
2023-02-17T19:37:43.798Z,1.27
2023-02-17T19:40:10.369Z,1.33
2023-02-17T19:42:36.926Z,1.08
2023-02-17T19:45:03.385Z,0.77
2023-02-17T19:47:30.888Z,0.70
2023-02-17T19:49:57.363Z,1.00
2023-02-17T19:52:23.745Z,1.17
2023-02-17T19:54:50.541Z,2.35
2023-02-17T19:57:18.317Z,0.70
2023-02-17T19:59:44.860Z,0.90
2023-02-17T20:02:14.983Z,0.70
2023-02-17T20:04:41.661Z,0.63
2023-02-17T20:07:08.230Z,0.50
2023-02-17T20:09:34.945Z,0.85
2023-02-17T20:12:01.324Z,0.55
2023-02-17T20:14:27.803Z,0.52
2023-02-17T20:16:55.625Z,0.80
2023-02-17T20:19:22.222Z,0.65
2023-02-17T20:21:50.761Z,0.57
2023-02-17T20:24:17.186Z,0.60
2023-02-17T20:26:45.095Z,1.80
2023-02-17T20:29:12.135Z,0.70
2023-02-17T20:31:39.736Z,0.52
2023-02-17T20:34:07.541Z,0.55
2023-02-17T20:36:34.213Z,0.70
2023-02-17T20:39:02.831Z,0.52
2023-02-17T20:41:29.637Z,0.50
2023-02-17T20:43:56.179Z,0.50
2023-02-17T20:46:24.331Z,0.38
2023-02-17T20:48:51.389Z,0.80
2023-02-17T20:51:18.038Z,0.73
2023-02-17T20:53:44.444Z,0.60
2023-02-17T20:56:14.271Z,0.57
2023-02-17T20:58:40.740Z,0.50
2023-02-17T21:01:07.257Z,0.65
2023-02-17T21:03:33.792Z,0.77
2023-02-17T21:06:01.926Z,0.40
2023-02-17T21:08:28.358Z,0.60
2023-02-17T21:10:54.732Z,0.40
2023-02-17T21:13:24.736Z,0.57
2023-02-17T21:15:51.278Z,0.73
2023-02-17T21:18:17.762Z,0.98
2023-02-17T21:20:44.233Z,0.85
2023-02-17T21:23:11.761Z,0.95
2023-02-17T21:25:38.164Z,0.80
2023-02-17T21:28:04.594Z,1.08
2023-02-17T21:30:31.041Z,0.88
2023-02-17T21:32:57.551Z,1.15
2023-02-17T21:35:23.973Z,1.02
2023-02-17T21:37:50.386Z,1.67
2023-02-17T21:40:16.785Z,0.80
2023-02-17T21:43:01.924Z,0.85
2023-02-17T21:45:28.357Z,0.95
2023-02-17T21:47:54.780Z,0.68
2023-02-17T21:50:21.973Z,1.00
2023-02-17T21:52:48.427Z,0.70
2023-02-17T21:55:14.815Z,0.77
2023-02-17T21:57:41.209Z,0.70
2023-02-17T22:00:08.850Z,1.38
2023-02-17T22:02:36.103Z,0.50
2023-02-17T22:05:02.527Z,0.95
2023-02-17T22:07:28.972Z,0.40
2023-02-17T22:09:55.366Z,0.50
2023-02-17T22:12:21.755Z,0.50
2023-02-17T22:14:48.169Z,0.40
2023-02-17T22:17:14.639Z,0.65
2023-02-17T22:19:41.026Z,0.50
2023-02-17T22:22:07.518Z,0.40
2023-02-17T22:24:33.960Z,0.60
2023-02-17T22:27:00.478Z,0.57
2023-02-17T22:29:26.871Z,0.60
2023-02-17T22:31:55.937Z,0.40
2023-02-17T22:34:23.164Z,0.52
2023-02-17T22:36:49.761Z,0.57
2023-02-17T22:39:16.290Z,0.88
2023-02-17T22:41:42.701Z,0.80
2023-02-17T22:44:09.212Z,1.73
2023-02-17T22:46:35.622Z,0.90
2023-02-17T22:49:02.238Z,0.93
2023-02-17T22:51:30.233Z,0.63
2023-02-17T22:53:56.849Z,0.65
2023-02-17T22:56:23.320Z,0.80
2023-02-17T22:58:55.715Z,1.10
2023-02-17T23:01:22.312Z,0.80
2023-02-17T23:03:53.926Z,1.30
2023-02-17T23:06:22.649Z,0.73
2023-02-17T23:08:49.320Z,1.13
2023-02-17T23:11:17.427Z,0.90
2023-02-17T23:13:44.239Z,1.35
2023-02-17T23:16:11.522Z,1.25
2023-02-17T23:18:38.038Z,1.10
2023-02-17T23:21:08.541Z,1.00
2023-02-17T23:23:35.013Z,1.45
2023-02-17T23:26:01.403Z,0.85
2023-02-17T23:28:27.817Z,1.00
2023-02-17T23:30:54.477Z,0.65
2023-02-17T23:33:22.517Z,0.93
2023-02-17T23:35:48.964Z,0.95
2023-02-17T23:38:16.485Z,0.90
2023-02-17T23:40:42.993Z,0.95
2023-02-17T23:43:09.429Z,0.80
2023-02-17T23:45:37.884Z,1.20
2023-02-17T23:48:04.619Z,0.80
2023-02-17T23:50:31.013Z,1.48
2023-02-17T23:52:57.504Z,1.02
2023-02-17T23:55:23.994Z,0.90
2023-02-17T23:57:50.363Z,1.10
